Time;durP1;ratioP1;P1;durP2;ratioP2;P2;SDS_P1;SDS_P2;PMS_P1;PMS_P2;Temp;Humidity;BMP_temperature;BMP_pressure;BME280_temperature;BME280_humidity;BME280_pressure;Samples;Min_cycle;Max_cycle;Signal;HPM_P1;HPM_P2
2023/03/27 00:01:10;;;;;;;8.13;1.80;;;3.20;99.90;;;;;;5046178;28;20090;-66
2023/03/27 00:03:36;;;;;;;9.63;1.73;;;3.20;99.90;;;;;;5048169;28;20044;-67
2023/03/27 00:06:08;;;;;;;7.68;1.70;;;3.20;99.90;;;;;;5049103;28;20036;-66
2023/03/27 00:08:35;;;;;;;;;;;3.20;99.90;;;;;;5048305;28;20083;-67
2023/03/27 00:11:01;;;;;;;7.63;1.60;;;3.10;99.90;;;;;;5049067;28;19924;-66
2023/03/27 00:13:28;;;;;;;7.47;1.55;;;3.10;99.90;;;;;;5051058;28;20045;-66
2023/03/27 00:15:55;;;;;;;6.38;1.60;;;3.10;99.90;;;;;;5041477;28;20111;-66
2023/03/27 00:18:21;;;;;;;6.20;1.55;;;3.10;99.90;;;;;;5051146;28;20518;-66
2023/03/27 00:20:47;;;;;;;7.53;2.05;;;3.10;99.90;;;;;;5047684;28;20033;-66
2023/03/27 00:23:13;;;;;;;6.85;2.08;;;3.10;99.90;;;;;;5050723;28;20087;-67
2023/03/27 00:25:39;;;;;;;7.55;1.83;;;3.00;99.90;;;;;;5050191;28;20056;-66
2023/03/27 00:28:07;;;;;;;8.63;2.05;;;2.90;99.90;;;;;;5042631;28;20457;-66
2023/03/27 00:30:34;;;;;;;9.38;2.67;;;2.90;99.90;;;;;;5051527;28;20406;-67
2023/03/27 00:32:59;;;;;;;4.38;1.55;;;2.80;99.90;;;;;;5047786;28;20049;-66
2023/03/27 00:35:27;;;;;;;6.15;1.80;;;2.80;99.90;;;;;;5049569;28;20032;-67
2023/03/27 00:37:53;;;;;;;8.88;2.28;;;2.70;99.90;;;;;;5050548;28;20029;-66
2023/03/27 00:40:19;;;;;;;6.72;1.88;;;2.70;99.90;;;;;;5051710;28;20470;-66
2023/03/27 00:42:50;;;;;;;9.88;2.05;;;2.70;99.90;;;;;;5047279;28;20043;-66
2023/03/27 00:45:22;;;;;;;8.88;2.70;;;2.70;99.90;;;;;;5046960;28;20124;-66
2023/03/27 00:47:53;;;;;;;7.78;1.77;;;2.60;99.90;;;;;;5049965;28;20048;-67
2023/03/27 00:50:24;;;;;;;9.50;2.05;;;2.60;99.90;;;;;;5045459;28;20048;-66
2023/03/27 00:52:55;;;;;;;10.40;2.47;;;2.60;99.90;;;;;;5039872;28;20041;-66
2023/03/27 00:55:21;;;;;;;10.05;2.10;;;2.60;99.90;;;;;;5042125;28;20482;-66
2023/03/27 00:57:50;;;;;;;5.93;1.73;;;2.60;99.90;;;;;;5046398;28;20086;-66
2023/03/27 01:00:17;;;;;;;8.65;1.42;;;2.70;99.90;;;;;;5045623;28;20033;-66
2023/03/27 01:02:47;;;;;;;7.50;1.50;;;2.90;99.90;;;;;;5049590;28;20037;-66
2023/03/27 01:05:13;;;;;;;6.55;1.60;;;2.90;99.90;;;;;;5045795;28;20719;-66
2023/03/27 01:07:39;;;;;;;10.60;1.98;;;2.90;99.90;;;;;;5047009;28;20037;-66
2023/03/27 01:10:07;;;;;;;7.70;1.63;;;2.90;99.90;;;;;;5045215;28;20036;-66
2023/03/27 01:12:54;;;;;;;5.25;1.63;;;2.90;99.90;;;;;;5050820;28;20075;-66
2023/03/27 01:15:41;;;;;;;7.68;1.63;;;2.90;99.90;;;;;;5046639;28;20083;-66
2023/03/27 01:18:45;;;;;;;7.03;2.00;;;2.90;99.90;;;;;;5041516;28;20163;-66
2023/03/27 01:21:43;;;;;;;8.93;2.15;;;2.90;99.90;;;;;;5036174;28;20044;-66
2023/03/27 01:24:31;;;;;;;9.82;2.10;;;2.90;99.90;;;;;;5045400;28;20029;-66
2023/03/27 01:27:09;;;;;;;7.28;1.90;;;2.80;99.90;;;;;;5042707;28;20064;-66
2023/03/27 01:30:01;;;;;;;11.52;1.80;;;2.80;99.90;;;;;;5049046;28;20079;-66
2023/03/27 01:32:42;;;;;;;7.97;2.13;;;2.70;99.90;;;;;;5047636;28;20044;-66
2023/03/27 01:35:35;;;;;;;7.60;2.13;;;2.60;99.90;;;;;;5047077;28;20041;-66
2023/03/27 01:38:10;;;;;;;7.03;1.92;;;2.60;99.90;;;;;;5049375;28;20338;-66
2023/03/27 01:40:46;;;;;;;6.55;2.00;;;2.60;99.90;;;;;;5054857;28;20048;-66
2023/03/27 01:43:26;;;;;;;11.00;1.65;;;2.60;99.90;;;;;;5053427;28;20044;-66
2023/03/27 01:46:13;;;;;;;6.35;2.00;;;2.50;99.90;;;;;;5044803;28;20044;-66
2023/03/27 01:48:56;;;;;;;8.07;2.00;;;2.60;99.90;;;;;;5050564;28;20214;-66
2023/03/27 01:51:27;;;;;;;6.03;1.75;;;2.50;99.90;;;;;;5050404;28;20037;-66
2023/03/27 01:54:17;;;;;;;7.55;2.03;;;2.50;99.90;;;;;;5054212;28;20037;-66
2023/03/27 01:56:50;;;;;;;5.43;1.88;;;2.50;99.90;;;;;;5052773;28;20041;-66
2023/03/27 01:59:18;;;;;;;6.68;1.85;;;2.50;99.90;;;;;;5048762;28;20041;-66
2023/03/27 02:01:50;;;;;;;8.40;1.73;;;2.50;99.90;;;;;;5051649;28;20052;-66
2023/03/27 02:04:20;;;;;;;6.78;1.65;;;2.50;99.90;;;;;;5049416;28;20402;-66
2023/03/27 02:06:52;;;;;;;8.88;2.10;;;2.50;99.90;;;;;;5049785;28;20182;-66
2023/03/27 02:09:45;;;;;;;6.32;1.80;;;2.40;99.90;;;;;;5045444;28;20048;-66
2023/03/27 02:12:18;;;;;;;7.30;1.92;;;2.40;99.90;;;;;;5042189;28;20072;-66
2023/03/27 02:14:52;;;;;;;5.05;1.65;;;2.40;99.90;;;;;;5049322;28;20048;-66
2023/03/27 02:17:20;;;;;;;11.68;1.67;;;2.40;99.90;;;;;;5052363;28;20041;-66
2023/03/27 02:19:53;;;;;;;3.70;1.75;;;2.40;99.90;;;;;;5045142;28;20129;-66
2023/03/27 02:22:19;;;;;;;7.60;1.80;;;2.40;99.90;;;;;;5049990;28;20413;-66
2023/03/27 02:24:45;;;;;;;7.45;1.70;;;2.40;99.90;;;;;;5050292;28;20049;-66
2023/03/27 02:27:34;;;;;;;5.47;2.08;;;2.30;99.90;;;;;;5049448;28;20037;-66
2023/03/27 02:30:48;;;;;;;7.68;1.90;;;2.40;99.90;;;;;;5050573;28;20048;-66
2023/03/27 02:33:50;;;;;;;9.55;1.63;;;2.40;99.90;;;;;;5045569;28;20136;-66
2023/03/27 02:36:40;;;;;;;9.85;2.00;;;2.30;99.90;;;;;;5051188;28;20044;-66
2023/03/27 02:39:11;;;;;;;12.52;1.77;;;2.30;99.90;;;;;;5046534;28;20521;-66
2023/03/27 02:41:46;;;;;;;9.65;1.70;;;2.40;99.90;;;;;;5046966;28;20056;-66
2023/03/27 02:44:35;;;;;;;6.03;1.60;;;2.30;99.90;;;;;;5043739;28;20194;-66
2023/03/27 02:47:06;;;;;;;7.38;2.00;;;2.30;99.90;;;;;;5046997;28;20068;-66
2023/03/27 02:49:45;;;;;;;2.65;1.50;;;2.30;99.90;;;;;;5050470;28;20045;-66
2023/03/27 02:52:17;;;;;;;8.85;1.70;;;2.30;99.90;;;;;;5048620;28;20037;-66
2023/03/27 02:54:52;;;;;;;9.00;2.20;;;2.30;99.90;;;;;;5050584;28;20033;-66
2023/03/27 02:57:21;;;;;;;6.30;1.80;;;2.20;99.90;;;;;;5049232;28;20033;-66
2023/03/27 02:59:54;;;;;;;5.78;1.52;;;2.30;99.90;;;;;;5051988;28;20041;-66
2023/03/27 03:02:25;;;;;;;6.78;1.77;;;2.20;99.90;;;;;;5047727;28;20037;-66
2023/03/27 03:05:21;;;;;;;8.35;1.85;;;2.20;99.90;;;;;;5060323;22;20041;-65
2023/03/27 03:07:47;;;;;;;9.65;1.35;;;2.20;99.90;;;;;;5051764;28;20052;-66
2023/03/27 03:10:14;;;;;;;8.13;2.28;;;2.20;99.90;;;;;;5062545;28;20508;-66
2023/03/27 03:12:40;;;;;;;8.00;1.80;;;2.20;99.90;;;;;;5062930;28;20490;-66
2023/03/27 03:15:10;;;;;;;7.18;1.92;;;2.20;99.90;;;;;;5058136;28;20036;-66
2023/03/27 03:17:35;;;;;;;5.47;1.55;;;2.20;99.90;;;;;;5054635;28;20095;-66
2023/03/27 03:20:03;;;;;;;5.47;1.80;;;2.10;99.90;;;;;;5053011;28;20059;-66
2023/03/27 03:22:30;;;;;;;5.78;1.50;;;2.20;99.90;;;;;;5062431;28;20040;-66
2023/03/27 03:24:56;;;;;;;8.27;1.60;;;2.20;99.90;;;;;;5052414;28;20083;-63
2023/03/27 03:27:22;;;;;;;7.55;1.70;;;2.20;99.90;;;;;;5060615;28;20479;-63
2023/03/27 03:29:48;;;;;;;6.00;1.65;;;2.20;99.90;;;;;;5046092;28;20036;-63
2023/03/27 03:32:14;;;;;;;8.95;1.73;;;2.20;99.90;;;;;;5047875;28;20044;-63
2023/03/27 03:34:40;;;;;;;7.15;1.92;;;2.20;99.90;;;;;;5055567;28;20092;-63
2023/03/27 03:37:09;;;;;;;4.80;1.70;;;2.30;99.90;;;;;;5046054;28;20040;-63
2023/03/27 03:39:35;;;;;;;6.57;1.90;;;2.30;99.90;;;;;;5051401;28;20075;-63
2023/03/27 03:42:01;;;;;;;8.57;2.30;;;2.30;99.90;;;;;;5049682;28;20438;-64
2023/03/27 03:44:27;;;;;;;6.85;1.77;;;2.30;99.90;;;;;;5050660;28;20108;-63
2023/03/27 03:46:52;;;;;;;5.38;1.63;;;2.30;99.90;;;;;;5062346;28;20510;-63
2023/03/27 03:49:18;;;;;;;9.38;1.67;;;2.30;99.90;;;;;;5053280;28;20450;-63
2023/03/27 03:51:43;;;;;;;7.30;1.80;;;2.30;99.90;;;;;;5051203;28;20420;-63
2023/03/27 03:54:09;;;;;;;9.38;1.52;;;2.20;99.90;;;;;;5064890;28;20033;-63
2023/03/27 03:56:36;;;;;;;6.90;1.45;;;2.20;99.90;;;;;;5051865;28;20402;-63
2023/03/27 03:59:01;;;;;;;9.18;1.63;;;2.30;99.90;;;;;;5048987;28;20507;-63
2023/03/27 04:01:27;;;;;;;5.32;1.70;;;2.20;99.90;;;;;;5047413;28;20155;-63
2023/03/27 04:03:53;;;;;;;4.95;1.50;;;2.20;99.90;;;;;;5051159;28;20466;-63
2023/03/27 04:06:19;;;;;;;6.80;1.83;;;2.20;99.90;;;;;;5053764;28;20032;-63
2023/03/27 04:08:45;;;;;;;7.35;1.40;;;2.20;99.90;;;;;;5062749;28;20142;-64
2023/03/27 04:11:11;;;;;;;11.68;1.88;;;2.10;99.90;;;;;;5058143;28;20040;-64
2023/03/27 04:13:37;;;;;;;7.57;1.58;;;2.10;99.90;;;;;;5051169;28;20490;-64
2023/03/27 04:16:03;;;;;;;5.13;1.40;;;2.10;99.90;;;;;;5061883;28;20024;-64
2023/03/27 04:18:31;;;;;;;6.63;1.50;;;2.10;99.90;;;;;;5050372;28;20597;-64
2023/03/27 04:20:58;;;;;;;7.50;1.58;;;2.10;99.90;;;;;;5051403;28;20498;-64
2023/03/27 04:23:29;;;;;;;4.30;1.40;;;2.10;99.90;;;;;;5053272;28;20048;-64
2023/03/27 04:26:02;;;;;;;8.18;1.90;;;2.10;99.90;;;;;;5060710;28;20116;-64
2023/03/27 04:28:33;;;;;;;2.53;1.20;;;2.10;99.90;;;;;;5050643;28;20029;-64
2023/03/27 04:31:05;;;;;;;8.38;1.80;;;2.10;99.90;;;;;;5047767;28;20036;-64
2023/03/27 04:33:38;;;;;;;4.32;1.30;;;2.00;99.90;;;;;;5050418;28;20413;-64
2023/03/27 04:36:08;;;;;;;7.13;1.45;;;2.00;99.90;;;;;;5052895;28;20032;-64
2023/03/27 04:38:39;;;;;;;6.38;1.60;;;2.00;99.90;;;;;;5062658;28;20031;-64
2023/03/27 04:41:05;;;;;;;5.32;1.50;;;2.00;99.90;;;;;;5043743;28;20049;-64
2023/03/27 04:43:31;;;;;;;5.18;1.50;;;2.00;99.90;;;;;;5045525;28;20112;-65
2023/03/27 04:45:56;;;;;;;9.65;1.65;;;1.90;99.90;;;;;;5051265;28;20033;-64
2023/03/27 04:48:22;;;;;;;9.00;1.88;;;1.90;99.90;;;;;;5051301;28;20081;-64
2023/03/27 04:50:48;;;;;;;6.13;1.45;;;1.90;99.90;;;;;;5047502;28;20025;-64
2023/03/27 04:53:15;;;;;;;7.70;1.63;;;1.90;99.90;;;;;;5045895;28;20041;-64
2023/03/27 04:55:42;;;;;;;5.70;1.70;;;1.90;99.90;;;;;;5051042;28;20116;-64
2023/03/27 04:58:07;;;;;;;3.40;1.83;;;2.00;99.90;;;;;;5047293;28;20049;-65
2023/03/27 05:00:33;;;;;;;5.55;1.63;;;2.00;99.90;;;;;;5042942;28;20039;-64
2023/03/27 05:02:59;;;;;;;9.23;1.67;;;2.10;99.90;;;;;;5041675;28;20437;-64
2023/03/27 05:05:26;;;;;;;5.43;1.65;;;2.10;99.90;;;;;;5039387;28;20045;-64
2023/03/27 05:07:52;;;;;;;7.50;1.90;;;2.10;99.90;;;;;;5046660;28;20033;-63
2023/03/27 05:10:18;;;;;;;7.97;1.50;;;2.10;99.90;;;;;;5057697;28;20036;-64
2023/03/27 05:12:45;;;;;;;6.32;2.03;;;2.10;99.90;;;;;;5054656;28;20564;-64
2023/03/27 05:15:12;;;;;;;4.10;1.40;;;2.10;99.90;;;;;;5055145;28;20033;-64
2023/03/27 05:17:43;;;;;;;8.05;1.65;;;2.10;99.90;;;;;;5055246;28;20025;-64
2023/03/27 05:20:11;;;;;;;5.10;1.85;;;2.10;99.90;;;;;;5045325;28;20037;-64
2023/03/27 05:22:37;;;;;;;6.13;2.05;;;2.10;99.90;;;;;;5048926;28;20108;-64
2023/03/27 05:25:03;;;;;;;4.10;1.67;;;2.10;99.90;;;;;;5041295;28;20041;-64
2023/03/27 05:27:29;;;;;;;9.75;1.73;;;2.20;99.90;;;;;;5041430;28;20091;-64
2023/03/27 05:29:56;;;;;;;6.47;1.45;;;2.20;99.90;;;;;;5043560;28;20053;-64
2023/03/27 05:32:22;;;;;;;4.38;1.77;;;2.10;99.90;;;;;;5037676;28;20041;-64
2023/03/27 05:34:49;;;;;;;6.53;1.80;;;2.20;99.90;;;;;;5038232;28;20075;-64
2023/03/27 05:37:16;;;;;;;2.88;1.30;;;2.20;99.90;;;;;;5045023;28;20037;-64
2023/03/27 05:39:45;;;;;;;6.53;1.85;;;2.10;99.90;;;;;;5045844;28;20498;-64
2023/03/27 05:42:10;;;;;;;5.38;1.42;;;2.10;99.90;;;;;;5040556;28;20451;-64
2023/03/27 05:44:36;;;;;;;4.63;1.58;;;2.10;99.90;;;;;;5040880;28;20075;-64
2023/03/27 05:47:01;;;;;;;5.32;1.83;;;2.10;99.90;;;;;;5045161;28;20091;-64
2023/03/27 05:49:27;;;;;;;8.60;2.05;;;2.10;99.90;;;;;;5043902;28;20045;-64
2023/03/27 05:51:52;;;;;;;5.80;1.77;;;2.00;99.90;;;;;;5041700;28;20045;-64
2023/03/27 05:54:18;;;;;;;8.32;1.83;;;2.00;99.90;;;;;;5044564;28;20036;-64
2023/03/27 05:56:44;;;;;;;5.93;1.95;;;2.00;99.90;;;;;;5040523;28;20041;-64
2023/03/27 05:59:09;;;;;;;7.60;1.98;;;1.90;99.90;;;;;;5044779;28;20033;-64
2023/03/27 06:01:35;;;;;;;8.23;2.05;;;2.00;99.90;;;;;;5040604;28;20037;-64
2023/03/27 06:04:03;;;;;;;6.15;2.17;;;2.00;99.90;;;;;;5039423;28;20037;-64
2023/03/27 06:06:28;;;;;;;6.93;2.25;;;2.00;99.90;;;;;;5044396;28;20080;-64
2023/03/27 06:08:54;;;;;;;7.70;2.10;;;2.00;99.90;;;;;;5044700;28;20036;-64
2023/03/27 06:11:20;;;;;;;7.80;2.30;;;2.00;99.90;;;;;;5052624;28;20155;-64
2023/03/27 06:13:46;;;;;;;8.60;2.05;;;2.10;99.90;;;;;;5052767;28;20119;-64
2023/03/27 06:16:11;;;;;;;8.85;1.92;;;2.10;99.90;;;;;;5052429;28;20438;-64
2023/03/27 06:18:37;;;;;;;11.00;2.67;;;2.10;99.90;;;;;;5054266;28;20482;-64
2023/03/27 06:21:03;;;;;;;4.97;2.00;;;2.20;99.90;;;;;;5052140;28;20064;-64
2023/03/27 06:23:28;;;;;;;6.65;2.40;;;2.30;99.90;;;;;;5046908;28;20074;-64
2023/03/27 06:25:55;;;;;;;10.68;2.58;;;2.40;99.90;;;;;;5049771;28;20049;-64
2023/03/27 06:28:20;;;;;;;8.68;1.95;;;2.40;99.90;;;;;;5054248;28;20046;-64
2023/03/27 06:30:47;;;;;;;8.20;2.17;;;2.50;99.90;;;;;;5058829;28;20037;-64
2023/03/27 06:33:16;;;;;;;9.25;2.35;;;2.60;99.90;;;;;;5046505;28;20131;-65
2023/03/27 06:35:42;;;;;;;12.32;2.30;;;2.80;99.90;;;;;;5055516;28;20029;-65
2023/03/27 06:38:08;;;;;;;7.47;1.67;;;3.00;99.90;;;;;;5051192;28;20025;-64
2023/03/27 06:40:34;;;;;;;3.47;1.42;;;3.00;99.90;;;;;;5064127;28;20112;-65
2023/03/27 06:43:09;;;;;;;4.57;1.40;;;3.10;99.90;;;;;;5044828;28;20039;-64
2023/03/27 06:45:43;;;;;;;5.20;1.30;;;3.20;99.90;;;;;;5061831;22;20497;-65
2023/03/27 06:48:09;;;;;;;4.32;1.08;;;3.30;99.90;;;;;;5067335;28;20071;-65
2023/03/27 06:50:35;;;;;;;2.63;1.10;;;3.40;99.90;;;;;;5072031;28;20078;-65
2023/03/27 06:53:01;;;;;;;3.30;1.02;;;3.50;99.90;;;;;;5063791;28;20123;-64
2023/03/27 06:55:29;;;;;;;2.90;0.93;;;3.50;99.90;;;;;;5072377;28;20178;-65
2023/03/27 06:57:56;;;;;;;5.82;1.27;;;3.40;99.90;;;;;;5068389;28;20052;-65
2023/03/27 07:00:25;;;;;;;4.20;1.80;;;3.40;99.90;;;;;;5062149;28;20074;-64
2023/03/27 07:02:59;;;;;;;3.42;1.48;;;3.30;99.90;;;;;;5067986;28;20134;-64
2023/03/27 07:05:27;;;;;;;3.75;1.20;;;3.30;99.90;;;;;;5066534;28;20116;-64
2023/03/27 07:07:53;;;;;;;3.75;1.00;;;3.30;99.90;;;;;;5061189;28;20613;-65
2023/03/27 07:10:20;;;;;;;5.85;1.30;;;3.30;99.90;;;;;;5068478;28;20047;-65
2023/03/27 07:12:51;;;;;;;7.13;1.42;;;3.30;99.90;;;;;;5069444;28;20101;-65
2023/03/27 07:15:17;;;;;;;8.50;1.23;;;3.30;99.90;;;;;;5067334;28;20044;-65
2023/03/27 07:17:43;;;;;;;6.32;1.38;;;3.40;99.90;;;;;;5065069;28;20032;-65
2023/03/27 07:20:12;;;;;;;4.78;1.35;;;3.40;99.90;;;;;;5064741;28;20486;-65
2023/03/27 07:22:41;;;;;;;4.60;1.08;;;3.50;99.90;;;;;;5071008;28;20506;-65
2023/03/27 07:25:11;;;;;;;3.38;1.00;;;3.60;99.90;;;;;;5071849;28;20082;-65
2023/03/27 07:27:37;;;;;;;5.53;1.10;;;3.70;99.90;;;;;;5071479;28;20028;-65
2023/03/27 07:30:06;;;;;;;6.07;1.50;;;3.80;99.90;;;;;;5067807;28;20046;-65
2023/03/27 07:32:35;;;;;;;3.78;1.30;;;3.80;99.90;;;;;;5070989;28;20033;-65
2023/03/27 07:35:04;;;;;;;4.85;1.58;;;3.90;99.90;;;;;;5071154;28;20489;-65
2023/03/27 07:37:29;;;;;;;3.17;1.27;;;4.10;99.90;;;;;;5072460;28;20041;-65
2023/03/27 07:39:55;;;;;;;6.35;1.35;;;4.20;99.90;;;;;;5068879;28;20042;-65
2023/03/27 07:42:21;;;;;;;7.22;1.50;;;4.30;99.90;;;;;;5071279;28;20072;-65
2023/03/27 07:44:46;;;;;;;8.55;1.50;;;4.30;99.90;;;;;;5072269;28;20094;-65
2023/03/27 07:47:12;;;;;;;6.97;1.58;;;4.40;99.90;;;;;;5068715;28;20115;-65
2023/03/27 07:49:38;;;;;;;3.90;1.30;;;4.50;99.90;;;;;;5072069;28;20041;-65
2023/03/27 07:52:04;;;;;;;5.38;1.30;;;4.50;99.90;;;;;;5064184;28;20036;-64
2023/03/27 07:54:30;;;;;;;8.80;1.50;;;4.60;99.90;;;;;;5065809;28;20039;-65
2023/03/27 07:56:56;;;;;;;12.18;1.65;;;4.70;99.90;;;;;;5066389;28;20041;-65
2023/03/27 07:59:22;;;;;;;6.00;1.30;;;4.80;99.90;;;;;;5071733;28;20401;-65
2023/03/27 08:01:50;;;;;;;6.60;1.33;;;4.90;99.90;;;;;;5069174;28;20036;-65
2023/03/27 08:04:16;;;;;;;5.35;1.50;;;5.00;99.90;;;;;;5072287;28;20044;-65
2023/03/27 08:06:42;;;;;;;6.03;1.50;;;5.10;99.90;;;;;;5069968;28;20119;-65
2023/03/27 08:09:09;;;;;;;7.15;1.33;;;5.20;99.90;;;;;;5072145;28;20116;-64
2023/03/27 08:11:36;;;;;;;6.70;1.83;;;5.30;99.90;;;;;;5070050;28;20036;-64
2023/03/27 08:14:02;;;;;;;8.18;1.50;;;5.40;99.90;;;;;;5069482;28;20036;-63
2023/03/27 08:16:28;;;;;;;5.03;1.48;;;5.50;99.90;;;;;;5068969;28;20081;-64
2023/03/27 08:18:54;;;;;;;8.10;1.45;;;5.70;99.90;;;;;;5069822;28;20043;-64
2023/03/27 08:21:20;;;;;;;5.93;1.30;;;5.80;99.90;;;;;;5065426;28;20028;-64
2023/03/27 08:23:46;;;;;;;6.93;1.83;;;5.90;99.90;;;;;;5071931;28;20036;-64
2023/03/27 08:26:15;;;;;;;7.13;1.65;;;6.10;99.90;;;;;;5071289;28;20055;-64
2023/03/27 08:28:41;;;;;;;5.93;1.05;;;6.10;99.90;;;;;;5069660;28;20036;-64
2023/03/27 08:31:10;;;;;;;6.28;0.93;;;5.90;99.90;;;;;;5067679;28;20052;-65
2023/03/27 08:33:36;;;;;;;6.85;1.30;;;5.50;99.90;;;;;;5071712;28;20047;-65
2023/03/27 08:36:01;;;;;;;6.20;1.35;;;5.00;99.90;;;;;;5069676;28;20443;-64
2023/03/27 08:38:31;;;;;;;1.30;0.80;;;4.60;99.90;;;;;;5069267;28;20043;-64
2023/03/27 08:41:00;;;;;;;4.43;1.20;;;4.20;99.90;;;;;;5071321;28;20513;-65
2023/03/27 08:43:46;;;;;;;2.97;1.17;;;3.90;99.90;;;;;;5066966;28;20036;-64
2023/03/27 08:46:37;;;;;;;6.18;1.30;;;3.70;99.90;;;;;;5062973;28;20059;-64
2023/03/27 08:49:25;;;;;;;4.72;1.50;;;3.60;99.90;;;;;;5069276;28;20068;-65
2023/03/27 08:52:07;;;;;;;3.30;1.00;;;3.70;99.90;;;;;;5071103;28;20044;-64
2023/03/27 08:54:37;;;;;;;7.20;1.77;;;3.90;99.90;;;;;;5069220;28;20067;-65
2023/03/27 08:57:18;;;;;;;3.45;1.00;;;4.10;99.90;;;;;;5066641;28;20033;-64
2023/03/27 08:59:44;;;;;;;;;;;4.40;99.90;;;;;;5068344;28;20436;-64
2023/03/27 09:02:35;;;;;;;5.63;1.30;;;4.50;99.90;;;;;;5068157;28;19916;-64
2023/03/27 09:05:16;;;;;;;6.07;1.60;;;4.80;99.90;;;;;;5079857;22;20044;-62
2023/03/27 09:08:21;;;;;;;5.32;1.50;;;5.00;99.90;;;;;;5028659;28;20033;-62
2023/03/27 09:10:56;;;;;;;7.80;1.83;;;5.30;99.90;;;;;;5026900;28;20112;-62
2023/03/27 09:13:48;;;;;;;4.38;1.13;;;5.50;99.90;;;;;;5037654;28;20526;-62
2023/03/27 09:16:28;;;;;;;6.93;1.67;;;5.70;99.90;;;;;;5026529;28;20100;-61
2023/03/27 09:19:11;;;;;;;8.10;1.48;;;5.80;99.90;;;;;;5042697;28;20033;-61
2023/03/27 09:22:02;;;;;;;5.47;1.65;;;5.90;99.90;;;;;;5039111;28;20045;-61
2023/03/27 09:24:36;;;;;;;3.85;1.02;;;6.00;99.90;;;;;;5026332;28;20040;-62
2023/03/27 09:27:18;;;;;;;4.03;1.38;;;6.00;99.90;;;;;;5027208;28;20517;-62
2023/03/27 09:29:44;;;;;;;7.53;1.40;;;6.20;99.90;;;;;;5033737;28;20156;-61
2023/03/27 09:32:15;;;;;;;5.88;1.67;;;6.30;99.90;;;;;;5042435;28;20044;-61
2023/03/27 09:34:41;;;;;;;6.03;1.38;;;6.40;99.90;;;;;;5039305;28;20041;-62
2023/03/27 09:37:15;;;;;;;4.93;1.13;;;6.50;99.90;;;;;;5032954;28;20029;-61
2023/03/27 09:39:45;;;;;;;7.07;1.40;;;6.60;99.90;;;;;;5034025;28;20038;-61
2023/03/27 09:42:18;;;;;;;1.90;0.97;;;6.70;99.90;;;;;;5028682;28;20499;-61
2023/03/27 09:44:46;;;;;;;4.63;1.10;;;6.50;99.90;;;;;;5026703;28;20495;-61
2023/03/27 09:47:14;;;;;;;4.55;1.30;;;6.10;99.90;;;;;;5025495;28;20045;-61
2023/03/27 09:49:45;;;;;;;3.40;0.82;;;5.70;99.90;;;;;;5047858;28;20083;-61
2023/03/27 09:52:33;;;;;;;6.97;1.23;;;5.50;99.90;;;;;;5027140;28;20286;-61
2023/03/27 09:54:59;;;;;;;1.48;0.60;;;5.50;99.90;;;;;;5020122;28;20043;-62
2023/03/27 09:57:34;;;;;;;1.63;0.60;;;5.70;99.90;;;;;;5028346;28;20049;-62
2023/03/27 10:00:09;;;;;;;2.35;0.82;;;5.90;99.90;;;;;;5031050;28;20078;-62
2023/03/27 10:02:36;;;;;;;1.50;0.63;;;6.10;99.90;;;;;;5041443;28;20044;-62
2023/03/27 10:05:15;;;;;;;1.80;0.70;;;6.20;99.90;;;;;;5048544;28;20041;-62
2023/03/27 10:07:42;;;;;;;2.05;0.88;;;6.30;99.90;;;;;;5032609;28;20077;-62
2023/03/27 10:10:11;;;;;;;4.10;0.88;;;6.50;99.90;;;;;;5037366;28;20044;-61
2023/03/27 10:12:38;;;;;;;3.28;0.80;;;6.60;99.90;;;;;;5033387;28;20084;-62
2023/03/27 10:15:22;;;;;;;1.85;0.90;;;6.80;99.90;;;;;;5028396;28;20155;-61
2023/03/27 10:17:48;;;;;;;4.40;0.93;;;6.80;99.90;;;;;;5028238;28;20033;-62
2023/03/27 10:20:19;;;;;;;2.08;0.98;;;6.90;99.90;;;;;;5027477;28;20040;-61
2023/03/27 10:22:54;;;;;;;4.82;0.80;;;7.00;99.90;;;;;;5031912;28;20052;-62
2023/03/27 10:25:28;;;;;;;4.65;1.10;;;7.10;99.90;;;;;;5031282;28;20499;-61
2023/03/27 10:28:22;;;;;;;5.45;0.90;;;7.10;99.90;;;;;;5029002;28;20387;-61
2023/03/27 10:31:00;;;;;;;4.13;0.82;;;7.20;99.90;;;;;;5033525;28;20121;-61
2023/03/27 10:33:35;;;;;;;5.20;0.93;;;7.40;99.90;;;;;;5041228;28;20033;-61
2023/03/27 10:36:03;;;;;;;4.40;0.90;;;7.40;99.90;;;;;;5032600;28;20037;-61
2023/03/27 10:38:30;;;;;;;2.60;0.82;;;7.30;99.90;;;;;;5038684;28;20108;-61
2023/03/27 10:40:56;;;;;;;5.72;0.98;;;7.30;99.90;;;;;;5048595;28;20073;-60
2023/03/27 10:43:31;;;;;;;3.40;0.82;;;7.20;99.90;;;;;;5026368;28;20467;-60
2023/03/27 10:46:05;;;;;;;4.70;1.02;;;7.00;99.90;;;;;;5017282;28;20071;-60
2023/03/27 10:48:42;;;;;;;8.10;0.82;;;6.70;99.90;;;;;;5039487;28;20049;-60
2023/03/27 10:51:46;;;;;;;3.88;1.20;;;6.60;99.90;;;;;;5035256;28;20044;-60
2023/03/27 10:54:18;;;;;;;6.47;1.40;;;6.80;99.90;;;;;;5035912;28;20128;-60
2023/03/27 10:57:01;;;;;;;6.72;1.10;;;6.80;99.90;;;;;;5039778;28;20034;-60
2023/03/27 10:59:32;;;;;;;3.95;1.02;;;6.50;99.90;;;;;;5014094;28;20038;-60
2023/03/27 11:02:11;;;;;;;5.18;0.90;;;6.10;99.90;;;;;;5025844;28;20065;-60
2023/03/27 11:05:01;;;;;;;3.50;1.13;;;5.90;99.90;;;;;;5025892;28;20068;-61
2023/03/27 11:07:32;;;;;;;4.00;1.00;;;6.00;99.90;;;;;;5030057;28;20049;-60
2023/03/27 11:10:03;;;;;;;4.03;0.88;;;6.30;99.90;;;;;;5041991;28;20033;-60
2023/03/27 11:12:35;;;;;;;5.25;1.27;;;6.60;99.90;;;;;;5035255;28;20553;-61
2023/03/27 11:15:17;;;;;;;3.17;0.90;;;6.80;99.90;;;;;;5033397;28;20044;-61
2023/03/27 11:17:52;;;;;;;5.97;1.42;;;7.00;99.90;;;;;;5030836;28;20040;-61
2023/03/27 11:20:34;;;;;;;4.47;1.00;;;7.00;99.90;;;;;;5027648;28;20083;-61
2023/03/27 11:23:14;;;;;;;5.72;1.15;;;7.10;99.90;;;;;;5038425;28;20120;-61
2023/03/27 11:25:48;;;;;;;4.88;1.40;;;7.30;99.90;;;;;;5041815;28;20482;-61
2023/03/27 11:28:23;;;;;;;4.03;0.98;;;7.50;99.90;;;;;;5033126;28;20043;-60
2023/03/27 11:30:52;;;;;;;3.17;1.17;;;7.60;99.90;;;;;;5027755;28;20384;-61
2023/03/27 11:33:26;;;;;;;3.75;0.88;;;7.70;99.90;;;;;;5058052;28;20457;-60
2023/03/27 11:36:29;;;;;;;6.18;1.05;;;7.80;99.90;;;;;;5034991;28;20044;-60
2023/03/27 11:39:20;;;;;;;4.97;1.00;;;7.70;99.90;;;;;;5033175;28;20037;-61
2023/03/27 11:41:51;;;;;;;4.32;1.00;;;7.80;99.90;;;;;;5032146;28;20042;-61
2023/03/27 11:44:17;;;;;;;6.25;0.90;;;8.10;99.90;;;;;;5024826;28;20044;-60
2023/03/27 11:47:19;;;;;;;2.03;0.80;;;8.10;99.90;;;;;;5023661;28;20038;-61
2023/03/27 11:49:48;;;;;;;5.38;0.90;;;8.00;99.90;;;;;;5014461;28;20050;-61
2023/03/27 11:52:46;;;;;;;4.85;0.93;;;8.10;99.90;;;;;;5030345;28;20486;-61
2023/03/27 11:55:28;;;;;;;4.03;1.02;;;8.30;99.90;;;;;;5025239;28;20038;-61
2023/03/27 11:58:31;;;;;;;7.03;0.80;;;8.40;99.90;;;;;;5046600;28;20445;-60
2023/03/27 12:01:08;;;;;;;3.92;1.00;;;8.60;99.90;;;;;;5042942;28;20545;-60
2023/03/27 12:03:43;;;;;;;2.97;0.85;;;8.50;99.90;;;;;;5022484;28;20120;-60
2023/03/27 12:06:49;;;;;;;3.75;0.85;;;8.00;99.90;;;;;;5028336;28;20048;-60
2023/03/27 12:09:58;;;;;;;4.75;0.70;;;7.30;99.90;;;;;;5030619;28;20087;-60
2023/03/27 12:12:39;;;;;;;2.15;0.60;;;6.70;99.90;;;;;;5032702;28;20572;-61
2023/03/27 12:15:34;;;;;;;2.28;0.60;;;6.40;99.90;;;;;;5032154;28;20511;-60
2023/03/27 12:18:14;;;;;;;1.83;0.50;;;6.40;99.90;;;;;;5031584;28;20400;-61
2023/03/27 12:20:59;;;;;;;4.88;0.60;;;6.60;99.90;;;;;;5036095;28;20029;-61
2023/03/27 12:23:44;;;;;;;3.08;0.70;;;6.80;99.90;;;;;;5030147;28;20041;-61
2023/03/27 12:26:24;;;;;;;2.33;0.50;;;7.00;99.90;;;;;;5038017;28;20107;-61
2023/03/27 12:29:28;;;;;;;3.00;0.70;;;7.30;99.90;;;;;;5029603;28;20080;-61
2023/03/27 12:32:06;;;;;;;4.65;1.20;;;7.50;99.90;;;;;;5015429;28;20057;-60
2023/03/27 12:34:37;;;;;;;5.68;1.00;;;7.70;99.90;;;;;;5029714;28;20041;-60
2023/03/27 12:37:04;;;;;;;;;;;7.70;99.90;;;;;;5022738;28;20079;-61
2023/03/27 12:39:30;;;;;;;6.18;1.02;;;7.30;99.90;;;;;;5020691;28;19940;-60
2023/03/27 12:41:55;;;;;;;4.38;0.93;;;6.70;99.90;;;;;;5029048;28;20368;-60
2023/03/27 12:44:29;;;;;;;6.07;1.13;;;6.20;99.90;;;;;;5029660;28;20033;-61
2023/03/27 12:47:13;;;;;;;6.28;0.98;;;5.90;99.90;;;;;;5024955;28;20044;-61
2023/03/27 12:49:44;;;;;;;4.95;0.90;;;5.70;99.90;;;;;;5029158;28;20048;-62
2023/03/27 12:52:10;;;;;;;3.72;0.60;;;5.70;99.90;;;;;;5025830;28;20038;-61
2023/03/27 12:54:38;;;;;;;4.45;0.80;;;5.60;99.90;;;;;;5031321;28;20036;-61
2023/03/27 12:57:13;;;;;;;1.92;0.80;;;5.60;99.90;;;;;;5022270;28;20386;-61
2023/03/27 12:59:47;;;;;;;5.68;1.15;;;5.70;99.90;;;;;;5013381;28;20038;-62
2023/03/27 13:02:30;;;;;;;6.45;1.30;;;5.90;99.90;;;;;;5036089;28;20044;-62
2023/03/27 13:05:05;;;;;;;9.02;1.45;;;6.10;99.90;;;;;;5040827;28;20613;-61
2023/03/27 13:08:01;;;;;;;9.60;1.70;;;6.30;99.90;;;;;;5033552;28;20095;-61
2023/03/27 13:10:39;;;;;;;6.80;1.20;;;6.40;99.90;;;;;;5031287;28;20514;-62
2023/03/27 13:13:25;;;;;;;7.63;1.75;;;6.40;99.90;;;;;;5024681;28;20053;-61
2023/03/27 13:16:06;;;;;;;4.07;1.30;;;6.40;99.90;;;;;;5028152;28;20541;-62
2023/03/27 13:18:44;;;;;;;5.38;1.30;;;6.50;99.90;;;;;;5039215;28;20045;-61
2023/03/27 13:21:17;;;;;;;7.47;1.23;;;6.70;99.90;;;;;;5027839;28;20123;-61
2023/03/27 13:23:58;;;;;;;7.75;1.40;;;7.00;99.90;;;;;;5029445;28;20051;-61
2023/03/27 13:26:45;;;;;;;7.85;1.27;;;7.30;99.90;;;;;;5039215;28;20044;-61